Time;durP1;ratioP1;P1;durP2;ratioP2;P2;SDS_P1;SDS_P2;PMS_P1;PMS_P2;Temp;Humidity;BMP_temperature;BMP_pressure;BME280_temperature;BME280_humidity;BME280_pressure;Samples;Min_cycle;Max_cycle;Signal;HPM_P1;HPM_P2
2021/08/09 00:00:49;;;;;;;1.17;1.00;;;21.80;71.10;;;;;;5011893;28;20495;-49
2021/08/09 00:03:15;;;;;;;1.95;0.90;;;21.80;71.10;;;;;;5011570;28;20061;-45
2021/08/09 00:05:41;;;;;;;1.20;0.98;;;21.80;71.80;;;;;;5011872;28;20048;-49
2021/08/09 00:08:07;;;;;;;1.65;0.90;;;21.80;71.10;;;;;;5011758;28;20092;-54
2021/08/09 00:10:33;;;;;;;1.38;0.90;;;21.80;71.10;;;;;;5012250;28;20442;-54
2021/08/09 00:12:59;;;;;;;1.70;1.00;;;21.80;71.10;;;;;;5010163;28;20054;-53
2021/08/09 00:15:25;;;;;;;1.15;0.90;;;21.80;71.10;;;;;;5011399;28;20046;-50
2021/08/09 00:17:51;;;;;;;1.52;1.13;;;21.70;71.10;;;;;;5011305;28;20402;-51
2021/08/09 00:20:17;;;;;;;1.60;1.10;;;21.80;71.10;;;;;;5011774;28;20062;-48
2021/08/09 00:22:45;;;;;;;1.08;1.02;;;21.70;71.10;;;;;;5011274;28;20056;-52
2021/08/09 00:25:12;;;;;;;1.02;0.80;;;21.80;71.10;;;;;;5011667;28;20037;-50
2021/08/09 00:27:38;;;;;;;1.30;1.15;;;21.70;71.10;;;;;;5011916;28;20100;-53
2021/08/09 00:30:05;;;;;;;1.00;0.90;;;21.70;71.10;;;;;;5011576;28;20050;-52
2021/08/09 00:32:31;;;;;;;2.63;1.27;;;21.70;71.10;;;;;;5011552;28;20056;-56
2021/08/09 00:34:58;;;;;;;2.20;1.20;;;21.80;71.20;;;;;;5011228;28;20064;-50
2021/08/09 00:37:23;;;;;;;1.88;0.98;;;21.80;71.20;;;;;;5010913;28;20045;-46
2021/08/09 00:39:49;;;;;;;1.45;1.10;;;21.70;71.10;;;;;;5011762;28;20403;-50
2021/08/09 00:42:15;;;;;;;1.35;0.90;;;21.80;71.20;;;;;;5011479;28;20294;-54
2021/08/09 00:44:43;;;;;;;1.65;1.00;;;21.80;71.20;;;;;;5010923;28;20057;-51
2021/08/09 00:47:09;;;;;;;1.10;0.93;;;21.70;71.10;;;;;;5011438;28;20073;-49
2021/08/09 00:49:36;;;;;;;1.20;0.90;;;21.80;71.20;;;;;;5011423;28;20050;-47
2021/08/09 00:52:04;;;;;;;1.95;1.27;;;21.70;71.10;;;;;;5011618;28;20487;-49
2021/08/09 00:54:30;;;;;;;0.77;0.77;;;21.70;71.10;;;;;;5010945;28;20138;-48
2021/08/09 00:56:56;;;;;;;1.17;1.08;;;21.70;71.10;;;;;;5011349;28;20121;-50
2021/08/09 00:59:22;;;;;;;1.20;0.90;;;21.70;71.20;;;;;;5011500;28;20121;-48
2021/08/09 01:01:48;;;;;;;2.20;0.95;;;21.70;71.20;;;;;;5011613;28;20042;-52
2021/08/09 01:04:13;;;;;;;0.88;0.80;;;21.70;71.20;;;;;;5010881;28;20507;-56
2021/08/09 01:06:39;;;;;;;1.42;0.90;;;21.80;71.20;;;;;;5011625;28;20084;-50
2021/08/09 01:09:19;;;;;;;1.13;0.90;;;21.70;71.20;;;;;;5011119;28;20050;-48
2021/08/09 01:11:58;;;;;;;1.25;1.00;;;21.70;71.20;;;;;;5011576;28;20506;-51
2021/08/09 01:14:50;;;;;;;1.98;1.02;;;21.70;71.20;;;;;;5011584;28;20422;-54
2021/08/09 01:17:18;;;;;;;1.42;0.70;;;21.70;71.20;;;;;;5011243;28;20049;-48
2021/08/09 01:20:21;;;;;;;1.23;0.98;;;21.70;71.30;;;;;;5010531;28;20058;-45
2021/08/09 01:23:08;;;;;;;1.70;1.10;;;21.70;71.20;;;;;;5011183;28;20096;-52
2021/08/09 01:25:55;;;;;;;1.58;0.82;;;21.70;71.20;;;;;;5010713;28;20053;-48
2021/08/09 01:28:24;;;;;;;1.17;1.00;;;21.70;71.30;;;;;;5011187;28;20048;-49
2021/08/09 01:30:52;;;;;;;1.05;0.88;;;21.70;71.40;;;;;;5011342;28;20045;-51
2021/08/09 01:33:19;;;;;;;1.25;1.10;;;21.70;71.30;;;;;;5011138;28;20042;-48
2021/08/09 01:35:47;;;;;;;0.85;0.70;;;21.70;71.30;;;;;;5010815;28;20046;-53
2021/08/09 01:38:15;;;;;;;0.75;0.65;;;21.70;71.30;;;;;;5011308;28;20038;-56
2021/08/09 01:40:43;;;;;;;1.42;0.90;;;21.70;71.30;;;;;;5011536;28;20049;-55
2021/08/09 01:43:09;;;;;;;1.17;0.90;;;21.70;71.30;;;;;;5014237;28;20042;-48
2021/08/09 01:45:36;;;;;;;1.25;0.93;;;21.70;71.30;;;;;;5015079;28;20384;-49
2021/08/09 01:48:02;;;;;;;1.30;0.95;;;21.70;71.40;;;;;;5014442;28;20048;-50
2021/08/09 01:50:28;;;;;;;0.88;0.88;;;21.70;71.40;;;;;;5014347;28;20428;-55
2021/08/09 01:52:54;;;;;;;1.70;1.00;;;21.70;71.40;;;;;;5014187;28;20132;-55
2021/08/09 01:55:20;;;;;;;1.60;0.90;;;21.70;71.40;;;;;;5013798;28;20468;-52
2021/08/09 01:57:46;;;;;;;1.65;1.20;;;21.70;71.40;;;;;;5014573;28;20045;-50
2021/08/09 02:00:16;;;;;;;1.30;1.00;;;21.70;71.40;;;;;;5014891;28;20050;-57
2021/08/09 02:02:43;;;;;;;0.70;0.70;;;21.70;71.40;;;;;;4995193;28;20057;-52
2021/08/09 02:05:12;;;;;;;1.45;0.80;;;21.70;71.40;;;;;;5001737;28;20099;-57
2021/08/09 02:07:43;;;;;;;1.17;1.02;;;21.70;71.40;;;;;;5013834;28;20046;-57
2021/08/09 02:10:11;;;;;;;0.80;0.80;;;21.60;71.40;;;;;;5014042;28;20471;-51
2021/08/09 02:13:02;;;;;;;0.77;0.77;;;21.70;71.40;;;;;;5014054;28;20186;-51
2021/08/09 02:15:58;;;;;;;1.58;1.00;;;21.60;71.30;;;;;;5010337;28;20088;-49
2021/08/09 02:18:36;;;;;;;0.82;0.70;;;21.60;71.30;;;;;;5013714;28;20120;-55
2021/08/09 02:21:08;;;;;;;1.25;1.02;;;21.70;71.40;;;;;;5004860;28;20112;-53
2021/08/09 02:23:43;;;;;;;1.20;1.10;;;21.60;71.40;;;;;;5013022;28;20129;-52
2021/08/09 02:26:09;;;;;;;1.75;1.08;;;21.70;71.40;;;;;;5013948;28;20095;-58
2021/08/09 02:28:40;;;;;;;1.05;0.90;;;21.60;71.40;;;;;;5013433;28;20440;-48
2021/08/09 02:31:08;;;;;;;1.25;0.80;;;21.60;71.40;;;;;;5013521;28;20041;-52
2021/08/09 02:33:35;;;;;;;0.80;0.80;;;21.60;71.40;;;;;;5013583;28;20067;-54
2021/08/09 02:36:03;;;;;;;1.13;0.80;;;21.70;71.40;;;;;;5013464;28;20068;-53
2021/08/09 02:38:31;;;;;;;0.85;0.80;;;21.60;71.40;;;;;;5012812;28;20167;-54
2021/08/09 02:40:59;;;;;;;1.58;0.80;;;21.70;71.50;;;;;;5013763;28;20042;-51
2021/08/09 02:43:27;;;;;;;1.23;0.90;;;21.70;71.50;;;;;;5013553;28;20040;-52
2021/08/09 02:45:54;;;;;;;1.95;1.20;;;21.60;71.40;;;;;;5013117;28;20058;-53
2021/08/09 02:48:20;;;;;;;1.63;0.90;;;21.60;71.40;;;;;;5013298;28;20045;-53
2021/08/09 02:50:48;;;;;;;0.82;0.80;;;21.60;71.40;;;;;;5012354;28;20414;-50
2021/08/09 02:53:18;;;;;;;1.02;0.90;;;21.60;71.40;;;;;;5011742;28;20351;-57
2021/08/09 02:55:51;;;;;;;0.90;0.90;;;21.60;71.50;;;;;;5012690;28;20038;-58
2021/08/09 02:58:19;;;;;;;1.23;1.13;;;21.60;71.40;;;;;;5011457;28;20392;-56
2021/08/09 03:00:45;;;;;;;1.38;1.10;;;21.60;71.50;;;;;;5013210;28;20045;-55
2021/08/09 03:03:11;;;;;;;2.30;1.13;;;21.60;71.50;;;;;;5013087;28;20042;-49
2021/08/09 03:05:39;;;;;;;0.90;0.90;;;21.60;71.50;;;;;;5012997;28;20054;-58
2021/08/09 03:08:10;;;;;;;2.22;1.00;;;21.60;71.50;;;;;;5013106;28;20054;-51
2021/08/09 03:10:35;;;;;;;1.20;0.98;;;21.60;71.50;;;;;;5012585;28;20058;-55
2021/08/09 03:13:03;;;;;;;1.50;0.98;;;21.60;71.50;;;;;;5012893;28;20057;-54
2021/08/09 03:15:30;;;;;;;2.33;1.10;;;21.50;71.50;;;;;;5013272;28;20095;-51
2021/08/09 03:17:56;;;;;;;1.10;0.95;;;21.60;71.60;;;;;;5012774;28;20045;-48
2021/08/09 03:20:22;;;;;;;1.80;1.08;;;21.60;71.60;;;;;;5012390;28;20054;-50
2021/08/09 03:22:47;;;;;;;1.55;0.80;;;21.60;71.60;;;;;;5012927;28;20046;-47
2021/08/09 03:25:13;;;;;;;0.73;0.73;;;21.60;71.60;;;;;;5012617;28;20398;-52
2021/08/09 03:27:39;;;;;;;1.30;1.10;;;21.60;71.60;;;;;;5012079;28;20054;-52
2021/08/09 03:30:05;;;;;;;1.48;0.90;;;21.60;71.70;;;;;;5012767;28;20383;-46
2021/08/09 03:32:31;;;;;;;1.52;0.90;;;21.60;71.60;;;;;;5012404;28;20513;-51
2021/08/09 03:34:56;;;;;;;0.82;0.82;;;21.60;71.60;;;;;;5013318;28;20046;-48
2021/08/09 03:37:22;;;;;;;1.13;1.00;;;21.60;71.60;;;;;;5012430;28;20104;-50
2021/08/09 03:39:48;;;;;;;1.05;0.93;;;21.60;71.60;;;;;;5012643;28;20050;-46
2021/08/09 03:42:13;;;;;;;1.02;0.93;;;21.60;71.60;;;;;;5012079;28;20487;-48
2021/08/09 03:44:40;;;;;;;1.05;0.98;;;21.60;71.60;;;;;;5012527;28;20046;-46
2021/08/09 03:47:08;;;;;;;1.55;1.05;;;21.50;71.50;;;;;;5012121;28;20056;-47
2021/08/09 03:49:34;;;;;;;1.60;1.08;;;21.60;71.60;;;;;;5012748;28;20084;-49
2021/08/09 03:51:59;;;;;;;1.48;0.82;;;21.50;71.50;;;;;;5012073;28;20045;-51
2021/08/09 03:54:27;;;;;;;1.30;0.70;;;21.50;71.50;;;;;;5012044;28;20042;-54
2021/08/09 03:56:53;;;;;;;1.00;0.90;;;21.50;71.50;;;;;;5011518;28;20054;-49
2021/08/09 03:59:19;;;;;;;1.00;0.90;;;21.60;71.60;;;;;;5011725;28;20041;-50
2021/08/09 04:01:47;;;;;;;0.70;0.70;;;21.50;71.50;;;;;;5012672;28;20046;-50
2021/08/09 04:04:13;;;;;;;1.00;0.90;;;21.50;71.60;;;;;;5010411;28;20562;-48
2021/08/09 04:06:39;;;;;;;1.52;1.23;;;21.60;71.60;;;;;;5012123;28;20128;-51
2021/08/09 04:09:07;;;;;;;1.30;1.00;;;21.60;71.60;;;;;;5011256;28;20379;-49
2021/08/09 04:11:33;;;;;;;1.75;0.98;;;21.60;71.60;;;;;;5012204;28;20050;-51
2021/08/09 04:13:59;;;;;;;1.10;0.90;;;21.50;71.60;;;;;;5011308;28;20050;-55
2021/08/09 04:16:25;;;;;;;1.27;1.00;;;21.50;71.60;;;;;;5011580;28;20038;-56
2021/08/09 04:18:51;;;;;;;0.90;0.80;;;21.50;71.60;;;;;;5012355;28;20042;-55
2021/08/09 04:21:20;;;;;;;1.58;1.23;;;21.50;71.60;;;;;;5011866;28;20054;-56
2021/08/09 04:23:48;;;;;;;1.20;1.10;;;21.50;71.60;;;;;;5011552;28;20050;-55
2021/08/09 04:26:15;;;;;;;0.82;0.82;;;21.50;71.60;;;;;;5012188;28;20053;-55
2021/08/09 04:28:45;;;;;;;0.80;0.80;;;21.50;71.60;;;;;;5010258;28;20037;-56
2021/08/09 04:31:11;;;;;;;1.40;0.98;;;21.50;71.60;;;;;;5012157;28;20192;-53
2021/08/09 04:33:46;;;;;;;1.45;0.90;;;21.50;71.60;;;;;;5011657;28;20125;-51
2021/08/09 04:36:12;;;;;;;0.95;0.88;;;21.50;71.60;;;;;;5011575;28;20050;-53
2021/08/09 04:38:38;;;;;;;1.33;1.08;;;21.50;71.60;;;;;;5011569;28;20049;-56
2021/08/09 04:41:09;;;;;;;1.58;0.90;;;21.50;71.60;;;;;;5012087;28;20054;-54
2021/08/09 04:43:36;;;;;;;1.35;0.82;;;21.50;71.60;;;;;;5011272;28;20056;-47
2021/08/09 04:46:04;;;;;;;1.13;1.00;;;21.50;71.60;;;;;;5011280;28;20050;-55
2021/08/09 04:48:30;;;;;;;1.35;1.17;;;21.50;71.60;;;;;;5011241;28;20100;-53
2021/08/09 04:50:56;;;;;;;2.95;1.00;;;21.50;71.60;;;;;;5011772;28;20118;-51
2021/08/09 04:53:22;;;;;;;1.55;1.00;;;21.50;71.50;;;;;;5011799;28;20487;-56
2021/08/09 04:55:47;;;;;;;1.20;1.00;;;21.50;71.60;;;;;;5011219;28;20057;-51
2021/08/09 04:58:13;;;;;;;1.15;0.98;;;21.50;71.60;;;;;;5010516;28;20132;-56
2021/08/09 05:00:39;;;;;;;1.17;1.00;;;21.50;71.60;;;;;;5011045;28;20110;-48
2021/08/09 05:03:05;;;;;;;1.73;0.90;;;21.50;71.60;;;;;;5011503;28;20496;-47
2021/08/09 05:05:30;;;;;;;1.83;0.95;;;21.50;71.60;;;;;;5011661;28;20117;-46
2021/08/09 05:07:57;;;;;;;1.60;1.10;;;21.50;71.60;;;;;;5011487;28;20096;-49
2021/08/09 05:10:24;;;;;;;0.88;0.80;;;21.50;71.60;;;;;;5011352;28;20098;-49
2021/08/09 05:12:50;;;;;;;2.13;1.10;;;21.50;71.60;;;;;;5011625;28;20053;-52
2021/08/09 05:15:17;;;;;;;2.30;0.98;;;21.50;71.60;;;;;;5010538;28;20137;-46
2021/08/09 05:17:42;;;;;;;2.38;1.20;;;21.50;71.60;;;;;;5013814;28;20053;-57
2021/08/09 05:20:09;;;;;;;1.17;1.08;;;21.50;71.60;;;;;;5014668;28;20053;-52
2021/08/09 05:22:35;;;;;;;1.23;1.02;;;21.50;71.60;;;;;;5015114;28;20081;-56
2021/08/09 05:25:03;;;;;;;1.05;0.80;;;21.50;71.60;;;;;;5014879;28;20053;-52
2021/08/09 05:27:30;;;;;;;0.77;0.70;;;21.50;71.60;;;;;;5014651;28;20102;-49
2021/08/09 05:29:56;;;;;;;2.25;1.00;;;21.50;71.60;;;;;;5014556;28;20046;-51
2021/08/09 05:32:22;;;;;;;0.80;0.70;;;21.50;71.60;;;;;;5014404;28;20042;-55
2021/08/09 05:34:47;;;;;;;1.02;0.82;;;21.50;71.60;;;;;;5015008;28;20382;-48
2021/08/09 05:37:15;;;;;;;2.20;1.08;;;21.50;71.60;;;;;;5014862;28;20522;-52
2021/08/09 05:39:41;;;;;;;0.73;0.73;;;21.50;71.60;;;;;;5014086;28;20054;-55
2021/08/09 05:42:07;;;;;;;2.40;1.00;;;21.50;71.60;;;;;;5014385;28;20096;-50
2021/08/09 05:44:34;;;;;;;1.15;1.05;;;21.50;71.60;;;;;;5014723;28;20054;-46
2021/08/09 05:47:00;;;;;;;1.15;1.00;;;21.50;71.60;;;;;;5014413;28;20054;-50
2021/08/09 05:49:25;;;;;;;1.00;0.80;;;21.50;71.60;;;;;;5014518;28;20052;-52
2021/08/09 05:51:51;;;;;;;2.03;1.00;;;21.50;71.60;;;;;;5014808;28;20494;-51
2021/08/09 05:54:17;;;;;;;2.75;1.10;;;21.50;71.60;;;;;;5014811;28;20111;-53
2021/08/09 05:56:43;;;;;;;1.55;1.00;;;21.50;71.60;;;;;;5014575;28;20069;-49
2021/08/09 05:59:08;;;;;;;1.15;0.98;;;21.50;71.70;;;;;;5013047;28;20077;-47
2021/08/09 06:01:34;;;;;;;1.02;0.85;;;21.50;71.60;;;;;;5014152;28;20053;-51
2021/08/09 06:04:00;;;;;;;1.48;1.20;;;21.50;71.60;;;;;;5013694;28;20049;-45
2021/08/09 06:06:26;;;;;;;3.03;1.00;;;21.50;71.60;;;;;;5014218;28;20050;-48
2021/08/09 06:08:51;;;;;;;2.35;0.90;;;21.50;71.70;;;;;;5014456;28;20411;-49
2021/08/09 06:11:17;;;;;;;1.63;1.00;;;21.50;71.60;;;;;;5013852;28;20061;-47
2021/08/09 06:13:43;;;;;;;1.38;1.10;;;21.50;71.60;;;;;;5012840;28;20076;-49
2021/08/09 06:16:09;;;;;;;1.17;0.88;;;21.40;71.50;;;;;;5014039;28;20108;-50
2021/08/09 06:18:39;;;;;;;0.93;0.88;;;21.50;71.70;;;;;;5013659;28;20050;-55
2021/08/09 06:21:05;;;;;;;2.03;1.20;;;21.50;71.60;;;;;;5013150;28;20081;-51
2021/08/09 06:23:31;;;;;;;1.40;1.10;;;21.50;71.60;;;;;;5014078;28;20135;-53
2021/08/09 06:25:57;;;;;;;1.77;0.93;;;21.40;71.60;;;;;;5013672;28;20049;-49
2021/08/09 06:28:23;;;;;;;1.40;1.02;;;21.50;71.60;;;;;;5013459;28;20042;-45
2021/08/09 06:30:49;;;;;;;1.15;0.98;;;21.50;71.60;;;;;;5013369;28;20058;-49
2021/08/09 06:33:15;;;;;;;2.78;1.13;;;21.50;71.60;;;;;;5013610;28;20503;-46
2021/08/09 06:35:40;;;;;;;1.20;1.10;;;21.50;71.60;;;;;;5013175;28;20037;-50
2021/08/09 06:38:08;;;;;;;0.90;0.80;;;21.40;71.60;;;;;;5012355;28;20053;-47
2021/08/09 06:40:35;;;;;;;2.10;1.00;;;21.40;71.60;;;;;;5013346;28;20041;-48
2021/08/09 06:43:01;;;;;;;1.20;0.80;;;21.40;71.60;;;;;;5013020;28;20045;-47
2021/08/09 06:45:28;;;;;;;1.35;1.15;;;21.50;71.60;;;;;;5013337;28;20056;-48
2021/08/09 06:47:54;;;;;;;1.63;1.10;;;21.50;71.60;;;;;;5013379;28;20054;-44
2021/08/09 06:50:20;;;;;;;1.60;1.23;;;21.40;72.20;;;;;;5012799;28;20116;-44
2021/08/09 06:52:46;;;;;;;2.65;1.17;;;21.40;71.60;;;;;;5013316;28;20422;-45
2021/08/09 06:55:11;;;;;;;2.35;1.00;;;21.40;71.60;;;;;;5013118;28;20050;-46
2021/08/09 06:57:37;;;;;;;1.08;0.98;;;21.40;72.20;;;;;;5013150;28;20391;-44
2021/08/09 07:00:05;;;;;;;1.67;1.20;;;21.40;71.60;;;;;;5012969;28;20054;-47
2021/08/09 07:02:30;;;;;;;0.98;0.80;;;21.40;71.60;;;;;;5006177;28;20065;-46
2021/08/09 07:04:56;;;;;;;0.98;0.80;;;21.40;71.60;;;;;;5013188;28;20046;-48
2021/08/09 07:07:22;;;;;;;1.90;1.00;;;21.40;71.60;;;;;;5013165;28;20549;-55
2021/08/09 07:09:47;;;;;;;1.95;1.30;;;21.40;71.60;;;;;;5013353;28;20148;-52
2021/08/09 07:12:13;;;;;;;1.45;0.95;;;21.40;71.50;;;;;;5012889;28;20403;-50
2021/08/09 07:14:39;;;;;;;0.80;0.70;;;21.50;71.60;;;;;;5012944;28;20053;-49
2021/08/09 07:17:05;;;;;;;0.93;0.80;;;21.40;71.50;;;;;;5012687;28;20488;-51
2021/08/09 07:19:30;;;;;;;1.15;1.00;;;21.50;71.60;;;;;;5012935;28;20062;-49
2021/08/09 07:21:57;;;;;;;1.55;0.90;;;21.50;71.60;;;;;;5011905;28;20042;-46
2021/08/09 07:24:22;;;;;;;1.30;1.10;;;21.40;71.60;;;;;;5009207;28;20054;-50
2021/08/09 07:26:48;;;;;;;1.80;0.93;;;21.40;71.60;;;;;;5012975;28;20046;-46
2021/08/09 07:29:14;;;;;;;1.65;1.00;;;21.40;71.60;;;;;;5012227;28;20520;-46
2021/08/09 07:31:40;;;;;;;1.95;1.30;;;21.40;71.60;;;;;;5011686;28;20041;-51
2021/08/09 07:34:06;;;;;;;0.95;0.95;;;21.40;71.60;;;;;;5011581;28;20112;-54
2021/08/09 07:36:31;;;;;;;1.30;1.00;;;21.50;71.60;;;;;;5011940;28;20053;-48
2021/08/09 07:38:57;;;;;;;1.50;1.00;;;21.40;71.60;;;;;;5011962;28;20517;-44
2021/08/09 07:41:22;;;;;;;1.48;0.93;;;21.40;71.60;;;;;;5011769;28;20100;-48
2021/08/09 07:43:48;;;;;;;1.60;1.13;;;21.50;71.60;;;;;;5011996;28;20056;-50
2021/08/09 07:46:15;;;;;;;1.73;0.95;;;21.40;71.60;;;;;;5011479;28;20050;-42
2021/08/09 07:48:41;;;;;;;2.15;1.00;;;21.50;71.60;;;;;;5012141;28;20046;-50
2021/08/09 07:51:07;;;;;;;0.82;0.82;;;21.40;71.60;;;;;;5011820;28;20038;-45
2021/08/09 07:53:32;;;;;;;1.20;0.90;;;21.40;71.60;;;;;;5011678;28;20490;-47
2021/08/09 07:55:58;;;;;;;0.90;0.90;;;21.50;71.60;;;;;;5011722;28;20037;-50
2021/08/09 07:58:24;;;;;;;1.65;0.90;;;21.50;71.60;;;;;;5012101;28;20115;-52
2021/08/09 08:00:51;;;;;;;1.55;0.90;;;21.50;71.60;;;;;;5011855;28;20567;-44
2021/08/09 08:03:17;;;;;;;2.22;1.00;;;21.50;71.60;;;;;;5011235;28;20053;-52
2021/08/09 08:05:43;;;;;;;1.80;0.90;;;21.50;71.60;;;;;;5011980;28;20482;-50
2021/08/09 08:08:10;;;;;;;2.08;0.90;;;21.40;71.50;;;;;;5011401;28;20046;-47
2021/08/09 08:10:37;;;;;;;1.08;0.98;;;21.40;71.60;;;;;;5012001;28;20092;-49
2021/08/09 08:13:03;;;;;;;1.23;0.90;;;21.50;71.60;;;;;;5011093;28;20094;-51
2021/08/09 08:15:28;;;;;;;1.38;0.80;;;21.50;71.50;;;;;;5011824;28;20069;-46
2021/08/09 08:17:54;;;;;;;2.47;1.08;;;21.50;71.50;;;;;;5011368;28;20494;-45
2021/08/09 08:20:20;;;;;;;1.40;0.85;;;21.50;71.50;;;;;;5011695;28;20085;-48
2021/08/09 08:22:46;;;;;;;1.27;1.00;;;21.50;71.50;;;;;;5011283;28;20164;-47
2021/08/09 08:25:12;;;;;;;1.42;1.00;;;21.50;71.50;;;;;;5010276;28;20058;-52
2021/08/09 08:27:38;;;;;;;1.20;0.98;;;21.50;71.50;;;;;;5011186;28;20076;-50
2021/08/09 08:30:05;;;;;;;1.77;0.98;;;21.50;71.50;;;;;;5011582;28;20041;-47
2021/08/09 08:32:31;;;;;;;1.58;1.00;;;21.50;71.50;;;;;;5010954;28;20057;-46
2021/08/09 08:34:57;;;;;;;1.55;0.93;;;21.50;71.50;;;;;;5010820;28;20141;-51
2021/08/09 08:37:22;;;;;;;0.98;0.82;;;21.50;71.50;;;;;;5009310;28;20555;-44
2021/08/09 08:39:48;;;;;;;1.48;1.10;;;21.50;71.40;;;;;;5010546;28;20508;-46
2021/08/09 08:42:14;;;;;;;1.30;0.90;;;21.50;72.10;;;;;;5010572;28;20050;-49
2021/08/09 08:44:42;;;;;;;1.10;1.00;;;21.50;71.40;;;;;;5011367;28;20061;-55
2021/08/09 08:47:10;;;;;;;1.35;0.82;;;21.50;71.40;;;;;;5011442;28;20510;-51
2021/08/09 08:49:36;;;;;;;1.45;0.98;;;21.50;71.40;;;;;;5011477;28;20429;-50
2021/08/09 08:52:04;;;;;;;0.95;0.70;;;21.50;71.40;;;;;;5014376;28;20061;-53
2021/08/09 08:54:30;;;;;;;1.85;0.85;;;21.50;71.40;;;;;;5014395;28;20042;-46
2021/08/09 08:56:55;;;;;;;1.35;1.00;;;21.50;71.40;;;;;;5015103;28;20050;-54
2021/08/09 08:59:21;;;;;;;1.55;1.10;;;21.50;71.40;;;;;;5007427;28;20038;-56
2021/08/09 09:01:49;;;;;;;1.15;1.00;;;21.50;71.40;;;;;;5015742;28;20046;-61
2021/08/09 09:04:47;;;;;;;1.15;1.02;;;21.50;71.40;;;;;;5014088;28;20045;-43
2021/08/09 09:07:12;;;;;;;1.33;1.10;;;21.50;71.30;;;;;;5011013;28;20056;-39
2021/08/09 09:09:39;;;;;;;1.15;1.00;;;21.60;71.40;;;;;;5011208;28;20136;-38
2021/08/09 09:12:12;;;;;;;3.17;1.10;;;21.60;71.40;;;;;;5011299;28;20625;-38
2021/08/09 09:14:38;;;;;;;1.58;1.05;;;21.60;71.40;;;;;;5011495;28;20375;-39
2021/08/09 09:17:03;;;;;;;1.17;0.98;;;21.60;71.40;;;;;;5005969;28;20056;-42
2021/08/09 09:19:36;;;;;;;2.28;1.10;;;21.50;71.30;;;;;;5002863;28;20046;-40
2021/08/09 09:22:18;;;;;;;2.20;0.98;;;21.50;71.30;;;;;;5010515;28;20420;-45
2021/08/09 09:24:49;;;;;;;1.95;1.23;;;21.60;71.40;;;;;;5009803;28;20096;-44
2021/08/09 09:27:31;;;;;;;1.65;1.20;;;21.60;71.40;;;;;;5010660;28;20145;-45
2021/08/09 09:29:58;;;;;;;1.88;1.10;;;21.60;71.30;;;;;;4995742;28;20058;-41
2021/08/09 09:32:25;;;;;;;1.52;1.05;;;21.50;71.30;;;;;;5010931;28;20045;-38
2021/08/09 09:34:53;;;;;;;1.23;1.05;;;21.60;71.40;;;;;;5010835;28;20042;-38
2021/08/09 09:37:29;;;;;;;1.50;1.00;;;21.60;71.40;;;;;;5011666;28;20054;-43
2021/08/09 09:40:08;;;;;;;1.40;0.98;;;21.60;71.30;;;;;;5011462;28;20072;-43
2021/08/09 09:42:36;;;;;;;1.30;1.20;;;21.60;71.30;;;;;;5011829;28;20062;-39
2021/08/09 09:45:21;;;;;;;2.13;1.20;;;21.60;71.40;;;;;;5013678;28;20053;-40
2021/08/09 09:48:05;;;;;;;1.30;0.85;;;21.60;71.30;;;;;;5013465;28;20069;-41
2021/08/09 09:50:42;;;;;;;1.27;1.17;;;21.60;71.30;;;;;;5013935;28;20072;-39
2021/08/09 09:53:15;;;;;;;1.58;1.33;;;21.60;71.40;;;;;;5012775;28;20041;-45
2021/08/09 09:55:42;;;;;;;1.15;0.90;;;21.70;71.50;;;;;;4993869;28;20101;-43
2021/08/09 09:58:09;;;;;;;2.30;1.20;;;21.60;71.40;;;;;;5005174;28;20046;-40
2021/08/09 10:00:35;;;;;;;1.75;1.17;;;21.60;71.40;;;;;;5014048;28;20104;-39
2021/08/09 10:03:01;;;;;;;1.30;1.20;;;21.60;71.30;;;;;;5012766;28;20402;-40
2021/08/09 10:05:28;;;;;;;2.65;1.40;;;21.60;71.30;;;;;;5012923;28;20057;-41
2021/08/09 10:07:54;;;;;;;2.42;1.50;;;21.60;71.30;;;;;;5012768;28;20103;-41
2021/08/09 10:10:24;;;;;;;2.10;1.10;;;21.70;71.30;;;;;;5012857;28;20037;-47
2021/08/09 10:12:51;;;;;;;2.97;1.33;;;21.70;71.30;;;;;;5012844;28;20061;-44
2021/08/09 10:15:19;;;;;;;1.75;1.20;;;21.70;71.30;;;;;;5012033;28;20409;-45
2021/08/09 10:17:48;;;;;;;2.38;1.30;;;21.70;71.30;;;;;;5012610;28;20065;-44
2021/08/09 10:20:17;;;;;;;1.30;1.20;;;21.70;71.40;;;;;;5012502;28;20068;-42
2021/08/09 10:23:05;;;;;;;1.08;0.90;;;21.70;71.40;;;;;;5010135;28;20100;-40
2021/08/09 10:25:50;;;;;;;2.10;1.10;;;21.70;71.30;;;;;;5010789;28;20115;-45
2021/08/09 10:28:19;;;;;;;2.17;1.30;;;21.70;71.30;;;;;;5012993;28;20066;-43
2021/08/09 10:30:45;;;;;;;1.40;1.13;;;21.80;71.40;;;;;;5012680;28;20456;-40
2021/08/09 10:33:11;;;;;;;1.48;0.95;;;21.70;71.30;;;;;;5013229;28;20050;-43
2021/08/09 10:35:40;;;;;;;1.40;1.10;;;21.80;71.30;;;;;;5012930;28;20118;-43
2021/08/09 10:38:35;;;;;;;2.35;1.27;;;21.80;71.30;;;;;;5010555;28;20136;-40
2021/08/09 10:41:01;;;;;;;3.47;1.40;;;21.80;69.70;;;;;;5012153;28;20128;-46
2021/08/09 10:43:27;;;;;;;6.65;1.70;;;21.70;70.40;;;;;;5013621;28;20454;-41
2021/08/09 10:45:53;;;;;;;3.05;1.70;;;21.80;70.20;;;;;;5011800;28;20081;-44
2021/08/09 10:48:45;;;;;;;3.13;1.83;;;21.80;70.20;;;;;;5012876;28;20065;-45
2021/08/09 10:51:11;;;;;;;5.88;2.55;;;21.80;70.30;;;;;;5013623;28;20050;-39
2021/08/09 10:53:43;;;;;;;4.72;1.77;;;21.80;70.30;;;;;;5013011;28;20064;-42
2021/08/09 10:56:29;;;;;;;5.70;1.83;;;21.80;70.40;;;;;;5012975;28;20073;-41
2021/08/09 10:58:56;;;;;;;2.05;1.42;;;21.80;70.50;;;;;;4993397;28;20062;-42
2021/08/09 11:01:23;;;;;;;3.38;1.73;;;21.80;70.60;;;;;;4996066;28;20433;-41
2021/08/09 11:04:06;;;;;;;2.80;1.38;;;21.90;70.70;;;;;;5013285;28;20064;-41
2021/08/09 11:06:39;;;;;;;2.88;1.35;;;21.90;70.70;;;;;;4998225;28;20057;-39
2021/08/09 11:09:33;;;;;;;3.05;1.55;;;21.80;70.70;;;;;;5007414;28;20131;-41
2021/08/09 11:12:17;;;;;;;2.97;1.27;;;21.90;70.70;;;;;;5013260;28;20046;-43
2021/08/09 11:17:31;;;;;;;2.80;1.40;;;21.90;70.70;;;;;;5012069;28;20034;-44
2021/08/09 11:20:34;;;;;;;2.00;1.25;;;21.90;70.70;;;;;;5012653;28;20062;-44
2021/08/09 11:22:59;;;;;;;6.38;1.48;;;21.90;70.70;;;;;;5012227;28;20049;-46
2021/08/09 11:25:34;;;;;;;2.55;1.00;;;21.90;70.70;;;;;;5012529;28;20092;-43
2021/08/09 11:28:04;;;;;;;2.60;1.40;;;21.90;71.40;;;;;;5012529;28;20042;-47
2021/08/09 11:30:37;;;;;;;1.67;1.20;;;22.00;70.80;;;;;;5010288;28;20049;-45
2021/08/09 11:33:03;;;;;;;3.65;1.50;;;22.00;70.80;;;;;;5011381;28;20050;-43
2021/08/09 11:35:43;;;;;;;2.35;1.20;;;21.90;70.80;;;;;;5109370;27;20473;-48
2021/08/09 11:38:09;;;;;;;2.33;1.45;;;22.00;70.90;;;;;;5109074;28;20044;-49
2021/08/09 11:40:39;;;;;;;1.60;1.20;;;22.00;70.90;;;;;;5109665;28;20495;-51
2021/08/09 11:43:09;;;;;;;1.73;1.17;;;22.00;70.80;;;;;;5109569;28;20040;-52
2021/08/09 11:45:36;;;;;;;3.22;1.52;;;22.00;70.90;;;;;;5109175;28;20112;-47
2021/08/09 11:48:02;;;;;;;3.53;1.38;;;22.00;70.80;;;;;;5109087;28;20055;-52
2021/08/09 11:50:34;;;;;;;2.85;1.30;;;22.00;70.80;;;;;;5109665;28;20051;-49
2021/08/09 11:53:00;;;;;;;2.50;1.50;;;22.00;70.70;;;;;;5109433;28;20050;-45
2021/08/09 11:55:26;;;;;;;3.75;1.35;;;22.00;70.70;;;;;;5108919;28;20051;-49
2021/08/09 11:57:52;;;;;;;1.67;1.20;;;22.00;70.70;;;;;;5109055;28;20503;-48
2021/08/09 12:00:18;;;;;;;3.22;1.20;;;22.00;70.70;;;;;;5108947;28;20040;-49
2021/08/09 12:03:09;;;;;;;2.20;1.40;;;22.00;70.70;;;;;;5108846;28;20052;-43
2021/08/09 12:05:37;;;;;;;2.08;1.25;;;22.00;70.60;;;;;;5108976;28;20069;-48
2021/08/09 12:08:05;;;;;;;1.50;1.15;;;22.00;70.60;;;;;;5108764;28;20039;-48
2021/08/09 12:10:32;;;;;;;2.40;1.27;;;22.10;70.70;;;;;;5108466;28;20066;-48
2021/08/09 12:12:59;;;;;;;2.80;1.20;;;22.10;70.70;;;;;;5108897;28;20506;-44
2021/08/09 12:15:25;;;;;;;1.83;1.05;;;22.10;70.60;;;;;;5108226;28;20539;-45
2021/08/09 12:18:08;;;;;;;2.38;1.13;;;22.10;71.30;;;;;;5108608;28;20415;-46
2021/08/09 12:20:35;;;;;;;1.90;1.20;;;22.10;70.60;;;;;;5108394;28;20510;-44
2021/08/09 12:23:02;;;;;;;1.02;0.93;;;22.10;70.60;;;;;;5108656;28;20478;-47
2021/08/09 12:25:39;;;;;;;1.23;1.10;;;22.10;70.60;;;;;;5108124;28;20043;-43
2021/08/09 12:28:06;;;;;;;1.80;1.13;;;22.10;70.60;;;;;;5108662;28;20051;-47
2021/08/09 12:30:52;;;;;;;1.20;1.08;;;22.10;70.50;;;;;;5108709;28;20154;-46
2021/08/09 12:33:19;;;;;;;2.20;1.08;;;22.10;70.50;;;;;;5104989;27;20075;-45
2021/08/09 12:35:45;;;;;;;1.70;0.98;;;22.10;70.50;;;;;;5106967;28;20055;-43
2021/08/09 12:38:14;;;;;;;1.75;0.90;;;22.10;70.50;;;;;;5108123;28;20039;-43
2021/08/09 12:40:52;;;;;;;1.90;1.13;;;22.10;70.50;;;;;;5107817;28;20412;-43
2021/08/09 12:43:20;;;;;;;2.63;1.30;;;22.10;70.50;;;;;;5108109;28;20062;-41
2021/08/09 12:45:47;;;;;;;2.08;1.23;;;22.10;70.50;;;;;;5101312;28;20048;-44
2021/08/09 12:48:14;;;;;;;1.95;1.02;;;22.10;70.50;;;;;;5094453;28;20036;-43
2021/08/09 12:50:41;;;;;;;1.10;1.00;;;22.10;70.50;;;;;;5094257;28;20445;-46
2021/08/09 12:53:08;;;;;;;2.22;1.10;;;22.10;70.40;;;;;;5094068;28;20039;-45
2021/08/09 12:55:34;;;;;;;2.03;1.13;;;22.10;70.50;;;;;;5094487;28;20099;-43
2021/08/09 12:58:01;;;;;;;1.77;1.20;;;22.10;70.40;;;;;;5094245;28;20376;-44